Weather History for Vernon, TX

Change the Weather History Date:

Tuesday, December 18, 2012

  Actual Average (KLTS) Record (KLTS)
Temperature  
Mean Temperature 50 °F -  
Max Temperature 66 °F 49 °F 75 °F (2001)
Min Temperature 35 °F 26 °F 15 °F (1996)
Degree Days  
Heating Degree Days 14    
Moisture  
Dew Point 27 °F    
Average Humidity 47    
Maximum Humidity 67    
Minimum Humidity 21    
Precipitation  
Precipitation 0.00 in - - ()
Sea Level Pressure  
Sea Level Pressure 29.78 in    
Wind  
Wind Speed 7 mph (ESE)    
Max Wind Speed 13 mph    
Max Gust Speed 22 mph    
Visibility 10 miles    
Events      
Averages and records for this station are not official NWS values.
T = Trace of Precipitation, MM = Missing Value Source: NWS Daily Summary

Daily Weather History Graph

Daily Weather History Graph

Search for Another Location

Airport:

Trip Planner

Search our weather history database for the weather conditions in past years. The results will help you decide how hot, cold, wet, or windy it might be!

Date:

Astronomy

Dec. 18, 2012 Rise Set
Actual Time 7:37 AM CST 5:30 PM CST
Civil Twilight 7:10 AM CST 5:58 PM CST
Nautical Twilight 6:38 AM CST 6:29 PM CST
Astronomical Twilight 6:08 AM CST 7:00 PM CST
Moon 11:32 AM CST (12/18) 11:42 PM CST (12/18)
Length of Visible Light 10h 48m
Length of Day
9h 52m
Waxing Crescent, 35% of the Moon is Illuminated
Dec 18
Waxing Crescent
Dec 19
First Quarter
Dec 28
Full
Jan 4
Last Quarter
Jan 11
New

Hourly Weather History & Observations

Time (CST) Temp. Windchill Dew Point Humidity Pressure Visibility Wind Dir Wind Speed Gust Speed Precip Events Conditions
12:15 AM 39.6 °F 33.5 °F 24.8 °F 56% 29.79 in 10.0 mi SW 9.2 mph - N/A   Clear
12:35 AM 39.4 °F 32.3 °F 25.2 °F 57% 29.78 in 10.0 mi SW 11.5 mph - N/A   Clear
12:55 AM 39.6 °F 32.5 °F 25.0 °F 56% 29.77 in 10.0 mi SW 11.5 mph - N/A   Clear
1:15 AM 39.6 °F 33.0 °F 24.8 °F 56% 29.76 in 10.0 mi SW 10.4 mph - N/A   Clear
1:35 AM 39.2 °F 31.6 °F 25.0 °F 57% 29.76 in 10.0 mi SW 12.7 mph - N/A   Clear
1:55 AM 39.7 °F 32.7 °F 25.2 °F 56% 29.76 in 10.0 mi SW 11.5 mph - N/A   Clear
2:15 AM 39.7 °F 33.2 °F 25.2 °F 56% 29.76 in 10.0 mi SW 10.4 mph - N/A   Clear
2:35 AM 38.7 °F 32.4 °F 25.3 °F 59% 29.76 in 10.0 mi SW 9.2 mph - N/A   Clear
2:55 AM 37.8 °F 30.7 °F 25.3 °F 61% 29.75 in 10.0 mi SW 10.4 mph - N/A   Clear
3:15 AM 37.4 °F 30.3 °F 25.2 °F 61% 29.75 in 10.0 mi SW 10.4 mph - N/A   Clear
3:35 AM 38.3 °F 30.9 °F 25.3 °F 60% 29.75 in 10.0 mi SW 11.5 mph 21.9 mph N/A   Clear
3:55 AM 39.0 °F 31.8 °F 25.3 °F 58% 29.74 in 10.0 mi SW 11.5 mph - N/A   Clear
4:15 AM 38.8 °F 31.6 °F 25.5 °F 59% 29.74 in 10.0 mi SW 11.5 mph - N/A   Clear
4:35 AM 38.8 °F 33.2 °F 25.7 °F 59% 29.74 in 10.0 mi WSW 8.1 mph - N/A   Clear
4:55 AM 38.3 °F 35.9 °F 26.1 °F 61% 29.75 in 10.0 mi North 3.5 mph - N/A   Clear
5:15 AM 38.8 °F - 25.9 °F 60% 29.75 in 10.0 mi Calm Calm - N/A   Clear
5:35 AM 38.8 °F - 25.9 °F 60% 29.76 in 10.0 mi Calm Calm - N/A   Clear
5:55 AM 37.8 °F 32.5 °F 25.7 °F 62% 29.76 in 10.0 mi SSW 6.9 mph - N/A   Clear
6:15 AM 37.4 °F 32.8 °F 25.5 °F 62% 29.75 in 10.0 mi SW 5.8 mph - N/A   Clear
6:35 AM 37.6 °F 34.0 °F 25.5 °F 62% 29.75 in 10.0 mi SW 4.6 mph - N/A   Clear
6:55 AM 36.5 °F 33.9 °F 25.3 °F 64% 29.76 in 10.0 mi West 3.5 mph - N/A   Clear
7:15 AM 35.2 °F - 25.2 °F 67% 29.76 in 10.0 mi Calm Calm - N/A   Clear
7:35 AM 37.2 °F - 25.3 °F 62% 29.77 in 10.0 mi Calm Calm - N/A   Clear
7:55 AM 36.0 °F - 25.3 °F 65% 29.78 in 10.0 mi Calm Calm - N/A   Clear
8:15 AM 36.3 °F 32.5 °F 25.7 °F 65% 29.80 in 10.0 mi South 4.6 mph - N/A   Clear
8:35 AM 36.3 °F - 26.1 °F 66% 29.81 in 10.0 mi Calm Calm - N/A   Clear
8:55 AM 38.3 °F 34.8 °F 27.7 °F 66% 29.82 in 10.0 mi SSW 4.6 mph - N/A   Clear
9:15 AM 42.4 °F 39.6 °F 28.8 °F 58% 29.82 in 10.0 mi SW 4.6 mph - N/A   Clear
9:35 AM 45.3 °F 44.0 °F 29.7 °F 54% 29.82 in 10.0 mi SSW 3.5 mph - N/A   Clear
9:55 AM 48.6 °F - 30.4 °F 50% 29.83 in 10.0 mi SW 4.6 mph - N/A   Clear
10:15 AM 50.9 °F - 29.8 °F 44% 29.83 in 10.0 mi SW 3.5 mph - N/A   Clear
10:35 AM 52.5 °F - 30.0 °F 42% 29.83 in 10.0 mi SW 4.6 mph - N/A   Clear
10:55 AM 54.1 °F - 29.8 °F 39% 29.84 in 10.0 mi West 8.1 mph - N/A   Clear
11:15 AM 56.3 °F - 30.0 °F 37% 29.84 in 10.0 mi NW 4.6 mph - N/A   Clear
11:35 AM 57.7 °F - 29.8 °F 35% 29.84 in 10.0 mi North 4.6 mph - N/A   Clear
11:55 AM 58.6 °F - 30.0 °F 34% 29.84 in 10.0 mi Calm Calm - N/A   Clear
12:15 PM 60.1 °F - 29.7 °F 32% 29.82 in 10.0 mi Calm Calm - N/A   Clear
12:35 PM 61.7 °F - 29.1 °F 29% 29.81 in 10.0 mi Calm Calm - N/A   Clear
12:55 PM 63.0 °F - 27.9 °F 27% 29.81 in 10.0 mi NW 3.5 mph - N/A   Clear
1:35 PM 64.6 °F - 26.8 °F 24% 29.80 in 10.0 mi North 4.6 mph - N/A   Unknown
1:55 PM 64.9 °F - 25.9 °F 23% 29.79 in 10.0 mi ENE 4.6 mph - N/A   Clear
2:15 PM 65.8 °F - 26.1 °F 22% 29.79 in 10.0 mi Calm Calm - N/A   Clear
2:35 PM 65.7 °F - 26.6 °F 23% 29.79 in 10.0 mi Calm Calm - N/A   Clear
2:55 PM 66.2 °F - 26.1 °F 22% 29.79 in 10.0 mi Calm Calm - N/A   Clear
3:35 PM 66.6 °F - 25.5 °F 21% 29.77 in 10.0 mi ENE 3.5 mph - N/A   Clear
3:55 PM 66.7 °F - 26.1 °F 22% 29.76 in 10.0 mi ESE 6.9 mph - N/A   Clear
4:15 PM 66.0 °F - 26.8 °F 23% 29.77 in 10.0 mi East 5.8 mph - N/A   Clear
4:35 PM 65.1 °F - 28.2 °F 25% 29.77 in 10.0 mi East 5.8 mph - N/A   Clear
4:55 PM 63.0 °F - 28.8 °F 28% 29.77 in 10.0 mi ENE 4.6 mph - N/A   Clear
5:15 PM 61.0 °F - 29.3 °F 30% 29.78 in 10.0 mi ENE 5.8 mph - N/A   Clear
5:35 PM - - - N/A% 29.78 in 10.0 mi ENE 5.8 mph - N/A   Unknown
5:55 PM 58.5 °F - 28.2 °F 32% 29.78 in 10.0 mi NE 5.8 mph - N/A   Clear
6:15 PM 56.7 °F - 28.4 °F 34% 29.78 in 10.0 mi ENE 6.9 mph - N/A   Clear
6:35 PM 54.9 °F - 28.8 °F 37% 29.78 in 10.0 mi ENE 6.9 mph - N/A   Clear
6:55 PM 53.2 °F - 28.6 °F 39% 29.78 in 10.0 mi NE 5.8 mph - N/A   Clear
7:15 PM 51.6 °F - 29.1 °F 42% 29.78 in 10.0 mi NE 6.9 mph - N/A   Clear
7:35 PM 50.5 °F - 29.7 °F 45% 29.77 in 10.0 mi ENE 6.9 mph - N/A   Clear
7:55 PM 49.6 °F - 29.7 °F 46% 29.77 in 10.0 mi East 5.8 mph - N/A   Clear
8:15 PM 49.1 °F - 29.7 °F 47% 29.76 in 10.0 mi ENE 6.9 mph - N/A   Clear
8:35 PM 47.7 °F - 29.1 °F 49% 29.76 in 10.0 mi ENE 8.1 mph - N/A   Clear
8:55 PM 46.9 °F - 29.3 °F 50% 29.75 in 10.0 mi East 8.1 mph - N/A   Clear
9:15 PM 47.5 °F - 29.1 °F 49% 29.75 in 10.0 mi East 8.1 mph - N/A   Clear
9:35 PM 47.3 °F - 28.9 °F 49% 29.74 in 10.0 mi East 6.9 mph - N/A   Clear
9:55 PM 46.8 °F - 28.4 °F 49% 29.73 in 10.0 mi East 6.9 mph - N/A   Clear
10:15 PM 45.1 °F 42.8 °F 28.2 °F 52% 29.74 in 10.0 mi NE 4.6 mph - N/A   Clear
10:35 PM 42.8 °F 39.3 °F 27.9 °F 56% 29.75 in 10.0 mi NNE 5.8 mph - N/A   Clear
10:55 PM 43.3 °F 40.7 °F 28.2 °F 55% 29.76 in 10.0 mi North 4.6 mph - N/A   Clear
11:15 PM 43.9 °F 41.3 °F 28.6 °F 55% 29.75 in 10.0 mi NNE 4.6 mph - N/A   Clear
11:35 PM 43.3 °F 40.7 °F 28.6 °F 56% 29.74 in 10.0 mi NE 4.6 mph - N/A   Clear
11:55 PM 43.7 °F 41.1 °F 28.9 °F 56% 29.73 in 10.0 mi ENE 4.6 mph - N/A   Clear